Time;durP1;ratioP1;P1;durP2;ratioP2;P2;SDS_P1;SDS_P2;PMS_P1;PMS_P2;Temp;Humidity;BMP_temperature;BMP_pressure;BME280_temperature;BME280_humidity;BME280_pressure;Samples;Min_cycle;Max_cycle;Signal;HPM_P1;HPM_P2
2022/08/11 00:01:13;;;;;;;;;;;16.40;99.90;;;;;;5013550;28;20380;-74
2022/08/11 00:03:49;;;;;;;;;;;16.40;99.90;;;;;;5013861;28;20442;-74
2022/08/11 00:06:21;;;;;;;;;;;16.40;99.90;;;;;;5007624;28;19974;-74
2022/08/11 00:08:49;;;;;;;;;;;16.30;99.90;;;;;;5019390;28;20091;-74
2022/08/11 00:11:16;;;;;;;;;;;16.40;99.90;;;;;;5017266;28;19929;-74
2022/08/11 00:13:44;;;;;;;;;;;16.30;99.90;;;;;;5020416;28;19917;-74
2022/08/11 00:16:12;;;;;;;;;;;16.30;99.90;;;;;;5021374;28;19917;-74
2022/08/11 00:18:42;;;;;;;;;;;16.30;99.90;;;;;;5014956;28;19924;-74
2022/08/11 00:21:08;;;;;;;;;;;16.20;99.90;;;;;;5002387;28;19921;-74
2022/08/11 00:23:38;;;;;;;;;;;16.20;99.90;;;;;;5014733;28;19951;-74
2022/08/11 00:26:05;;;;;;;;;;;16.20;99.90;;;;;;5019422;28;19917;-74
2022/08/11 00:28:32;;;;;;;;;;;16.10;99.90;;;;;;4999209;28;20254;-74
2022/08/11 00:31:02;;;;;;;;;;;16.10;99.90;;;;;;5016017;28;19929;-74
2022/08/11 00:33:38;;;;;;;;;;;16.00;99.90;;;;;;5019311;28;20347;-73
2022/08/11 00:36:04;;;;;;;;;;;16.00;99.90;;;;;;5018667;28;20003;-74
2022/08/11 00:38:33;;;;;;;;;;;15.90;99.90;;;;;;5015326;28;19917;-74
2022/08/11 00:41:17;;;;;;;;;;;15.80;99.90;;;;;;5015130;28;20105;-74
2022/08/11 00:44:00;;;;;;;;;;;15.80;99.90;;;;;;5018696;28;20020;-74
2022/08/11 00:46:26;;;;;;;;;;;15.80;99.90;;;;;;5001257;28;19921;-74
2022/08/11 00:48:51;;;;;;;;;;;15.80;99.90;;;;;;5015184;28;19977;-73
2022/08/11 00:51:35;;;;;;;;;;;15.80;99.90;;;;;;5016297;28;19917;-74
2022/08/11 00:54:13;;;;;;;;;;;15.80;99.90;;;;;;5016612;28;19948;-73
2022/08/11 00:56:47;;;;;;;;;;;15.80;99.90;;;;;;5018875;28;19917;-74
2022/08/11 00:59:12;;;;;;;;;;;15.80;99.90;;;;;;5018044;28;20281;-74
2022/08/11 01:01:56;;;;;;;;;;;15.80;99.90;;;;;;5016828;28;20304;-74
2022/08/11 01:04:21;;;;;;;;;;;15.80;99.90;;;;;;5016371;28;19968;-73
2022/08/11 01:07:06;;;;;;;;;;;15.60;99.90;;;;;;5017604;28;20078;-74
2022/08/11 01:09:34;;;;;;;;;;;15.60;99.90;;;;;;5008512;28;19987;-74
2022/08/11 01:12:18;;;;;;;;;;;15.50;99.90;;;;;;5017708;28;19925;-74
2022/08/11 01:14:50;;;;;;;;;;;15.50;99.90;;;;;;5013116;28;20004;-74
2022/08/11 01:17:34;;;;;;;;;;;15.40;99.90;;;;;;5016735;28;19924;-74
2022/08/11 01:20:03;;;;;;;;;;;15.40;99.90;;;;;;5014245;28;20567;-74
2022/08/11 01:22:40;;;;;;;;;;;15.40;99.90;;;;;;5017008;28;19932;-74
2022/08/11 01:25:24;;;;;;;;;;;15.40;99.90;;;;;;5018757;28;19972;-73
2022/08/11 01:28:10;;;;;;;;;;;15.40;99.90;;;;;;4998283;28;19960;-74
2022/08/11 01:30:58;;;;;;;;;;;15.40;99.90;;;;;;5015736;28;19964;-74
2022/08/11 01:33:43;;;;;;;;;;;15.40;99.90;;;;;;4995803;28;19964;-74
2022/08/11 01:36:14;;;;;;;;;;;15.40;99.90;;;;;;5020213;28;19917;-74
2022/08/11 01:38:42;;;;;;;;;;;15.30;99.90;;;;;;5001274;28;19917;-74
2022/08/11 01:41:11;;;;;;;;;;;15.30;99.90;;;;;;5016878;28;19917;-73
2022/08/11 01:46:46;;;;;;;;;;;15.20;99.90;;;;;;5011166;28;19949;-74
2022/08/11 01:49:16;;;;;;;;;;;15.10;99.90;;;;;;5017293;28;19925;-73
2022/08/11 01:52:00;;;;;;;;;;;15.10;99.90;;;;;;5016397;28;19927;-74
2022/08/11 01:54:30;;;;;;;;;;;15.00;99.90;;;;;;5017616;28;19968;-74
2022/08/11 01:56:55;;;;;;;;;;;15.00;99.90;;;;;;5015839;28;19917;-73
2022/08/11 01:59:24;;;;;;;;;;;14.90;99.90;;;;;;5016249;28;19929;-74
2022/08/11 02:01:58;;;;;;;;;;;14.90;99.90;;;;;;5012167;28;19924;-74
2022/08/11 02:04:32;;;;;;;;;;;14.90;99.90;;;;;;5016201;28;20385;-74
2022/08/11 02:07:17;;;;;;;;;;;14.90;99.90;;;;;;5020840;22;19943;-74
2022/08/11 02:09:46;;;;;;;;;;;14.90;99.90;;;;;;4988695;28;20016;-74
2022/08/11 02:12:21;;;;;;;;;;;14.90;99.90;;;;;;4993604;28;19923;-74
2022/08/11 02:15:06;;;;;;;;;;;14.90;99.90;;;;;;4990052;28;20309;-74
2022/08/11 02:17:47;;;;;;;;;;;14.90;99.90;;;;;;4990330;28;20365;-74
2022/08/11 02:25:58;;;;;;;;;;;14.90;99.90;;;;;;4990117;28;19925;-74
2022/08/11 02:28:27;;;;;;;;;;;14.90;99.90;;;;;;4973949;28;20312;-74
2022/08/11 02:33:21;;;;;;;;;;;14.90;99.90;;;;;;4993256;28;20008;-74
2022/08/11 02:33:42;;;;;;;;;;;14.90;99.90;;;;;;4990034;28;21557;-74
2022/08/11 02:36:13;;;;;;;;;;;14.90;99.90;;;;;;4989812;28;19917;-74
2022/08/11 02:38:44;;;;;;;;;;;14.90;99.90;;;;;;4992346;28;19956;-74
2022/08/11 02:44:03;;;;;;;;;;;14.90;99.90;;;;;;4992829;28;20361;-73
2022/08/11 02:46:35;;;;;;;;;;;15.00;99.90;;;;;;4996784;28;19917;-73
2022/08/11 02:51:58;;;;;;;;;;;14.90;99.90;;;;;;4988636;28;19924;-74
2022/08/11 02:54:28;;;;;;;;;;;14.90;99.90;;;;;;4991111;28;19924;-74
2022/08/11 02:57:04;;;;;;;;;;;14.90;99.90;;;;;;4991283;28;19957;-74
2022/08/11 03:02:14;;;;;;;;;;;14.80;99.90;;;;;;4983229;28;19932;-74
2022/08/11 03:04:44;;;;;;;;;;;14.80;99.90;;;;;;4993058;28;19970;-74
2022/08/11 03:07:20;;;;;;;;;;;14.80;99.90;;;;;;4990616;28;19997;-74
2022/08/11 03:10:02;;;;;;;;;;;14.70;99.90;;;;;;4991557;28;19928;-74
2022/08/11 03:18:44;;;;;;;;;;;14.60;99.90;;;;;;4974064;28;20292;-73
2022/08/11 03:21:13;;;;;;;;;;;14.60;99.90;;;;;;4975457;28;19933;-73
2022/08/11 03:23:38;;;;;;;;;;;14.60;99.90;;;;;;4996581;28;19926;-75
2022/08/11 03:26:23;;;;;;;;;;;14.60;99.90;;;;;;4986140;28;19925;-73
2022/08/11 03:29:07;;;;;;;;;;;14.60;99.90;;;;;;4979115;28;20242;-74
2022/08/11 03:31:51;;;;;;;;;;;14.50;99.90;;;;;;4995275;28;19919;-74
2022/08/11 03:34:21;;;;;;;;;;;14.50;99.90;;;;;;4997312;28;19917;-74
2022/08/11 03:36:56;;;;;;;;;;;14.50;99.90;;;;;;4994590;28;19917;-73
2022/08/11 03:39:33;;;;;;;;;;;14.40;99.90;;;;;;4995313;28;19917;-73
2022/08/11 03:41:58;;;;;;;;;;;14.50;99.90;;;;;;4994172;28;21266;-74
2022/08/11 03:44:27;;;;;;;;;;;14.40;99.90;;;;;;4992988;28;19924;-74
2022/08/11 03:46:58;;;;;;;;;;;14.40;99.90;;;;;;4993427;28;20162;-74
2022/08/11 03:49:28;;;;;;;;;;;14.40;99.90;;;;;;4997203;28;20048;-73
2022/08/11 03:52:12;;;;;;;;;;;14.40;99.90;;;;;;4976457;28;20360;-74
2022/08/11 03:54:53;;;;;;;;;;;14.40;99.90;;;;;;4995869;28;19929;-74
2022/08/11 03:57:37;;;;;;;;;;;14.30;99.90;;;;;;4991964;28;20375;-73
2022/08/11 04:00:03;;;;;;;;;;;14.30;99.90;;;;;;4995215;28;19917;-74
2022/08/11 04:02:31;;;;;;;;;;;14.20;99.90;;;;;;4976702;28;20030;-74
2022/08/11 04:05:29;;;;;;;;;;;14.20;99.90;;;;;;4994737;28;19972;-73
2022/08/11 04:08:13;;;;;;;;;;;14.20;99.90;;;;;;4953485;28;19971;-74
2022/08/11 04:10:42;;;;;;;;;;;14.10;99.90;;;;;;4994167;28;19936;-73
2022/08/11 04:13:07;;;;;;;;;;;14.10;99.90;;;;;;4998936;28;19927;-73
2022/08/11 04:16:01;;;;;;;;;;;14.10;99.90;;;;;;5001193;28;20368;-73
2022/08/11 04:18:38;;;;;;;;;;;14.10;99.90;;;;;;4985411;28;19980;-73
2022/08/11 04:21:23;;;;;;;;;;;14.10;99.90;;;;;;4998246;28;19960;-73
2022/08/11 04:24:05;;;;;;;;;;;14.10;99.90;;;;;;4998973;28;19925;-74
2022/08/11 04:26:49;;;;;;;;;;;14.00;99.90;;;;;;5002243;28;20296;-74
2022/08/11 04:29:33;;;;;;;;;;;14.00;99.90;;;;;;4998656;28;19964;-74
2022/08/11 04:32:17;;;;;;;;;;;14.00;99.90;;;;;;4998640;28;19917;-75
2022/08/11 04:34:45;;;;;;;;;;;13.90;99.90;;;;;;4984207;28;19917;-74
2022/08/11 04:40:18;;;;;;;;;;;13.90;99.90;;;;;;4990035;28;20499;-73
2022/08/11 04:43:20;;;;;;;;;;;13.90;99.90;;;;;;4999427;28;20359;-73
2022/08/11 04:45:54;;;;;;;;;;;13.90;99.90;;;;;;4998890;28;19924;-73
2022/08/11 05:03:34;;;;;;;;;;;14.00;99.90;;;;;;5003983;28;20431;-74
2022/08/11 05:06:24;;;;;;;;;;;14.00;99.90;;;;;;5004420;28;19925;-73
2022/08/11 05:08:53;;;;;;;;;;;14.00;99.90;;;;;;4987733;28;19936;-73
2022/08/11 05:11:27;;;;;;;;;;;14.00;99.90;;;;;;5006404;28;20161;-74
2022/08/11 05:36:43;;;;;;;;;;;14.50;99.90;;;;;;5003842;28;19944;-74
2022/08/11 05:58:35;;;;;;;;;;;15.00;99.90;;;;;;4993570;28;19928;-74
2022/08/11 06:01:01;;;;;;;;;;;15.10;99.90;;;;;;4995868;28;20113;-75
2022/08/11 06:03:28;;;;;;;;;;;15.20;99.90;;;;;;4996373;28;20176;-74
2022/08/11 06:05:55;;;;;;;;;;;15.30;99.90;;;;;;4974776;28;20241;-74
2022/08/11 06:08:29;;;;;;;;;;;15.50;99.90;;;;;;4985716;28;19999;-74
2022/08/11 06:10:59;;;;;;;;;;;15.60;99.90;;;;;;4992551;28;19922;-74
2022/08/11 06:13:25;;;;;;;;;;;15.70;99.90;;;;;;4989043;28;20416;-74
2022/08/11 06:15:52;;;;;;;;;;;15.90;99.90;;;;;;4988744;28;19917;-73
2022/08/11 06:18:17;;;;;;;;;;;16.00;99.90;;;;;;4991615;28;19918;-74
2022/08/11 06:20:47;;;;;;;;;;;16.10;99.90;;;;;;4993202;28;19940;-73
2022/08/11 06:23:16;;;;;;;;;;;16.20;99.90;;;;;;4993365;28;20550;-74
2022/08/11 06:25:42;;;;;;;;;;;16.30;99.90;;;;;;4991266;28;19917;-73
2022/08/11 06:28:08;;;;;;;;;;;16.40;99.90;;;;;;4987218;28;19917;-74
2022/08/11 06:30:38;;;;;;;;;;;16.40;99.90;;;;;;4968163;28;19917;-74
2022/08/11 06:33:06;;;;;;;;;;;16.50;99.90;;;;;;4982023;28;20875;-75
2022/08/11 06:35:32;;;;;;;;;;;16.70;99.90;;;;;;4989685;28;20020;-74
2022/08/11 06:38:06;;;;;;;;;;;16.80;99.90;;;;;;4987903;28;20387;-74
2022/08/11 06:41:29;;;;;;;;;;;17.00;99.90;;;;;;4985895;28;20253;-74
2022/08/11 06:43:35;;;;;;;;;;;17.10;99.90;;;;;;4987636;28;19929;-74
2022/08/11 06:46:04;;;;;;;;;;;17.30;99.90;;;;;;4996488;28;19917;-74
2022/08/11 06:48:31;;;;;;;;;;;17.50;99.90;;;;;;4987007;28;19917;-75
2022/08/11 06:51:12;;;;;;;;;;;17.70;99.90;;;;;;4987116;28;19917;-74
2022/08/11 06:53:38;;;;;;;;;;;17.80;99.90;;;;;;4987134;28;19921;-74
2022/08/11 07:02:03;;;;;;;;;;;18.10;99.90;;;;;;4907394;29;20143;-74
2022/08/11 07:04:31;;;;;;;;;;;18.20;99.90;;;;;;4905220;29;20466;-73
2022/08/11 07:15:41;;;;;;;;;;;18.80;99.90;;;;;;4987307;28;20439;-75
2022/08/11 07:29:20;;;;;;;;;;;19.80;99.90;;;;;;4986526;28;19975;-75
2022/08/11 07:31:49;;;;;;;;;;;20.00;99.90;;;;;;4996434;28;19961;-75
2022/08/11 07:34:23;;;;;;;;;;;20.30;99.90;;;;;;4989536;28;19918;-75
2022/08/11 07:36:59;;;;;;;;;;;20.40;99.90;;;;;;4994540;28;20056;-75
2022/08/11 07:39:26;;;;;;;;;;;20.60;99.90;;;;;;4978585;28;20017;-75
2022/08/11 07:41:52;;;;;;;;;;;20.80;99.90;;;;;;4996729;28;19917;-75
2022/08/11 07:44:19;;;;;;;;;;;20.90;99.90;;;;;;4996456;28;20231;-74
2022/08/11 07:52:35;;;;;;;;;;;21.70;99.90;;;;;;4998437;28;19995;-76
2022/08/11 07:55:12;;;;;;;;;;;22.60;99.90;;;;;;4991699;28;19922;-74
2022/08/11 08:19:39;;;;;;;;;;;43.50;39.90;;;;;;4984838;28;20404;-73
2022/08/11 08:22:05;;;;;;;;;;;43.50;38.00;;;;;;4978811;28;20000;-73
2022/08/11 08:24:32;;;;;;;;;;;43.10;39.60;;;;;;4972287;28;19928;-73
2022/08/11 08:26:58;;;;;;;;;;;43.60;37.20;;;;;;4984868;28;19914;-74
2022/08/11 08:32:27;;;;;;;;;;;43.60;37.10;;;;;;4979785;28;21200;-73
2022/08/11 08:34:54;;;;;;;;;;;43.60;36.50;;;;;;4987176;28;19917;-74
2022/08/11 08:37:22;;;;;;;;;;;44.10;37.00;;;;;;4993175;28;20027;-74
2022/08/11 08:39:48;;;;;;;;;;;44.10;36.50;;;;;;4990956;28;20349;-73
2022/08/11 08:42:17;;;;;;;;;;;43.90;36.30;;;;;;4993242;28;20018;-73
2022/08/11 08:44:45;;;;;;;;;;;44.00;35.60;;;;;;4994723;28;20149;-73
2022/08/11 08:47:15;;;;;;;;;;;43.30;34.40;;;;;;4979460;28;20466;-73
2022/08/11 08:49:48;;;;;;;;;;;43.60;35.40;;;;;;4996380;28;20019;-73
2022/08/11 08:52:15;;;;;;;;;;;43.50;34.10;;;;;;4977334;28;19917;-74
2022/08/11 08:54:42;;;;;;;;;;;43.60;34.40;;;;;;4987190;28;19921;-73
2022/08/11 08:57:08;;;;;;;;;;;43.60;33.00;;;;;;4985393;28;19917;-74
2022/08/11 08:59:36;;;;;;;;;;;44.00;32.60;;;;;;4977317;28;19917;-73
2022/08/11 09:02:03;;;;;;;;;;;42.80;32.60;;;;;;4990632;28;20317;-73
2022/08/11 09:04:29;;;;;;;;;;;43.30;33.40;;;;;;4994563;28;20024;-73
2022/08/11 09:06:57;;;;;;;;;;;42.80;33.20;;;;;;4996537;28;19917;-73
2022/08/11 09:09:23;;;;;;;;;;;42.80;31.90;;;;;;4990553;28;19971;-73
2022/08/11 09:11:49;;;;;;;;;;;43.10;30.30;;;;;;4994974;28;19936;-74
2022/08/11 09:14:59;;;;;;;;;;;43.10;31.10;;;;;;4993828;28;20086;-73
2022/08/11 09:17:11;;;;;;;;;;;42.40;30.60;;;;;;4994097;28;19963;-73
2022/08/11 09:19:37;;;;;;;;;;;42.40;30.80;;;;;;5002514;28;19960;-73
2022/08/11 09:27:31;;;;;;;;;;;41.20;32.30;;;;;;4998625;28;19947;-74
2022/08/11 09:29:57;;;;;;;;;;;41.90;32.20;;;;;;4997569;28;20436;-73
2022/08/11 09:32:23;;;;;;;;;;;41.90;31.90;;;;;;4991364;28;19917;-72
2022/08/11 09:34:50;;;;;;;;;;;41.20;32.20;;;;;;4997426;28;19940;-73
2022/08/11 09:45:30;;;;;;;;;;;41.90;31.80;;;;;;5000755;28;19917;-73
2022/08/11 09:47:57;;;;;;;;;;;41.50;32.10;;;;;;4998848;28;19924;-73
2022/08/11 09:50:22;;;;;;;;;;;41.80;29.30;;;;;;4999539;28;19914;-73
2022/08/11 09:52:49;;;;;;;;;;;41.20;29.50;;;;;;5000932;28;19918;-73
2022/08/11 09:55:15;;;;;;;;;;;41.30;30.00;;;;;;4998243;28;19921;-72
2022/08/11 10:00:31;;;;;;;;;;;40.80;30.50;;;;;;4997903;28;19940;-73
2022/08/11 10:02:57;;;;;;;;;;;40.90;29.70;;;;;;4999075;28;20226;-73
2022/08/11 10:08:10;;;;;;;;;;;40.80;29.70;;;;;;4998789;28;19932;-73
2022/08/11 10:10:37;;;;;;;;;;;41.40;31.60;;;;;;4998778;28;20325;-73
2022/08/11 10:13:05;;;;;;;;;;;41.90;29.50;;;;;;4994937;28;20228;-72
2022/08/11 10:15:34;;;;;;;;;;;41.20;29.20;;;;;;4991734;28;19918;-73
2022/08/11 10:20:49;;;;;;;;;;;41.50;29.30;;;;;;4998569;28;19925;-73
2022/08/11 10:28:43;;;;;;;;;;;41.10;31.80;;;;;;4995555;28;20431;-73
2022/08/11 10:34:00;;;;;;;;;;;41.70;28.90;;;;;;4994852;28;20056;-73
2022/08/11 10:36:26;;;;;;;;;;;41.30;28.90;;;;;;4306166;28;10000654;-73
2022/08/11 10:38:53;;;;;;;;;;;40.90;28.90;;;;;;4977806;28;19966;-72
2022/08/11 10:44:05;;;;;;;;;;;41.10;29.00;;;;;;4996102;28;19932;-73
2022/08/11 10:49:15;;;;;;;;;;;41.40;30.90;;;;;;4990539;28;20038;-72
2022/08/11 10:59:55;;;;;;;;;;;41.30;29.80;;;;;;4996061;28;20268;-73
2022/08/11 11:02:21;;;;;;;;;;;41.30;28.90;;;;;;4995024;28;19925;-73
2022/08/11 11:04:46;;;;;;;;;;;41.30;28.10;;;;;;4991782;28;19986;-73
2022/08/11 11:07:18;;;;;;;;;;;41.30;28.50;;;;;;4992219;28;19926;-73
2022/08/11 11:09:49;;;;;;;;;;;41.30;30.20;;;;;;4978738;28;20263;-73
2022/08/11 11:18:06;;;;;;;;;;;40.90;29.30;;;;;;4996397;28;19925;-72
2022/08/11 11:20:42;;;;;;;;;;;40.80;29.60;;;;;;4996091;28;19952;-73
2022/08/11 11:23:15;;;;;;;;;;;40.50;32.50;;;;;;4992149;28;20270;-72
2022/08/11 11:26:05;;;;;;;;;;;40.70;30.50;;;;;;4998576;28;20148;-72
2022/08/11 11:28:35;;;;;;;;;;;40.80;30.00;;;;;;5000882;28;20300;-72
2022/08/11 11:31:05;;;;;;;;;;;40.70;29.70;;;;;;4997445;28;19918;-72
2022/08/11 11:33:40;;;;;;;;;;;40.60;31.90;;;;;;5001451;28;20190;-72
2022/08/11 11:36:24;;;;;;;;;;;39.80;31.70;;;;;;5000273;28;20369;-72
2022/08/11 11:38:50;;;;;;;;;;;39.20;30.00;;;;;;5000013;28;19996;-72
2022/08/11 11:41:24;;;;;;;;;;;38.30;30.60;;;;;;4999452;28;20016;-72
2022/08/11 11:43:53;;;;;;;;;;;38.10;30.40;;;;;;4988248;28;20380;-72
2022/08/11 11:46:19;;;;;;;;;;;37.60;29.70;;;;;;4993549;28;19950;-72
2022/08/11 11:48:45;;;;;;;;;;;37.20;30.80;;;;;;4999191;28;19918;-72
2022/08/11 11:51:13;;;;;;;;;;;37.20;33.00;;;;;;4997118;28;19921;-72
2022/08/11 11:53:44;;;;;;;;;;;37.40;32.80;;;;;;4998235;28;19940;-73
2022/08/11 11:56:10;;;;;;;;;;;37.20;30.90;;;;;;4980843;28;20357;-71
2022/08/11 12:01:24;;;;;;;;;;;37.00;34.20;;;;;;4996680;28;20245;-72
2022/08/11 12:03:50;;;;;;;;;;;37.10;35.70;;;;;;4987003;28;20384;-72
2022/08/11 12:06:17;;;;;;;;;;;37.10;34.80;;;;;;4965336;28;19925;-72
2022/08/11 12:08:43;;;;;;;;;;;36.70;33.80;;;;;;4991200;28;20092;-72
2022/08/11 12:14:00;;;;;;;;;;;36.60;32.50;;;;;;4989233;28;20317;-72
2022/08/11 12:16:26;;;;;;;;;;;36.70;33.00;;;;;;4989015;28;20254;-71
2022/08/11 12:18:55;;;;;;;;;;;36.40;33.10;;;;;;4983841;28;19925;-74
2022/08/11 12:21:21;;;;;;;;;;;36.30;32.60;;;;;;4980416;28;19944;-74
2022/08/11 12:29:27;;;;;;;;;;;35.90;34.80;;;;;;4973904;28;20317;-73
2022/08/11 12:31:53;;;;;;;;;;;36.10;33.70;;;;;;4990626;28;20013;-72
2022/08/11 12:34:19;;;;;;;;;;;36.30;32.50;;;;;;4985674;28;20808;-73
2022/08/11 12:36:53;;;;;;;;;;;36.10;33.70;;;;;;4691948;28;10000383;-73
2022/08/11 12:45:26;;;;;;;;;;;35.90;32.30;;;;;;4980143;28;19917;-73
2022/08/11 12:51:57;;;;;;;;;;;35.80;33.80;;;;;;4983826;28;20439;-73
2022/08/11 12:53:10;;;;;;;;;;;35.60;33.90;;;;;;4988506;28;19926;-72
2022/08/11 12:58:22;;;;;;;;;;;35.50;33.20;;;;;;4992199;28;20300;-72
2022/08/11 13:06:18;;;;;;;;;;;35.50;37.90;;;;;;4995747;28;19924;-73
2022/08/11 13:08:44;;;;;;;;;;;35.60;33.00;;;;;;4985814;28;19934;-72
2022/08/11 13:13:55;;;;;;;;;;;35.20;33.20;;;;;;4993545;28;19963;-72
2022/08/11 13:17:19;;;;;;;;;;;35.10;35.00;;;;;;4986962;28;20176;-72
2022/08/11 13:19:18;;;;;;;;;;;35.10;34.60;;;;;;4990862;28;19939;-73
2022/08/11 13:21:45;;;;;;;;;;;35.10;36.30;;;;;;4996803;28;19928;-74
2022/08/11 13:24:10;;;;;;;;;;;35.20;34.50;;;;;;4974008;28;19929;-73
2022/08/11 13:26:36;;;;;;;;;;;35.00;34.30;;;;;;4990872;28;19928;-73
2022/08/11 13:29:02;;;;;;;;;;;34.90;33.10;;;;;;4998958;28;20031;-73
2022/08/11 13:31:28;;;;;;;;;;;34.90;35.10;;;;;;4998639;28;19930;-72
2022/08/11 13:33:53;;;;;;;;;;;34.90;33.80;;;;;;4997725;28;20400;-72
2022/08/11 13:36:21;;;;;;;;;;;35.00;35.30;;;;;;4997380;28;20835;-73
2022/08/11 13:38:47;;;;;;;;;;;35.10;33.80;;;;;;4981734;28;19921;-73
2022/08/11 13:43:57;;;;;;;;;;;34.90;34.50;;;;;;4996019;28;20491;-73
2022/08/11 13:46:23;;;;;;;;;;;34.90;35.80;;;;;;4990604;28;19930;-72
2022/08/11 13:48:50;;;;;;;;;;;34.80;34.60;;;;;;4991910;28;20376;-73
2022/08/11 13:51:32;;;;;;;;;;;34.80;35.40;;;;;;4992781;28;19921;-73
2022/08/11 13:54:09;;;;;;;;;;;34.90;33.70;;;;;;4991844;28;19995;-73
2022/08/11 13:56:37;;;;;;;;;;;34.80;34.40;;;;;;4982168;28;20396;-72
2022/08/11 13:59:03;;;;;;;;;;;34.80;34.10;;;;;;4983970;28;20304;-73
2022/08/11 14:01:30;;;;;;;;;;;34.70;33.50;;;;;;4997991;28;19925;-72
2022/08/11 14:04:02;;;;;;;;;;;34.60;35.90;;;;;;5001140;28;19921;-73
2022/08/11 14:06:27;;;;;;;;;;;34.50;36.00;;;;;;5001351;28;19970;-73
2022/08/11 14:08:53;;;;;;;;;;;34.30;35.80;;;;;;5000513;28;19925;-72
2022/08/11 14:14:05;;;;;;;;;;;34.40;37.40;;;;;;4988305;28;19992;-73
2022/08/11 14:16:33;;;;;;;;;;;34.30;35.00;;;;;;4991602;28;19918;-73
2022/08/11 14:19:04;;;;;;;;;;;34.30;35.90;;;;;;4992015;28;19921;-72
2022/08/11 14:24:20;;;;;;;;;;;34.10;37.40;;;;;;4988662;28;22831;-72
2022/08/11 14:26:46;;;;;;;;;;;33.90;35.00;;;;;;4996521;28;19917;-72
2022/08/11 14:29:13;;;;;;;;;;;33.90;35.80;;;;;;4996358;28;20753;-72
2022/08/11 14:31:43;;;;;;;;;;;33.90;36.40;;;;;;4991682;28;19920;-72
2022/08/11 14:34:11;;;;;;;;;;;33.90;34.70;;;;;;4994084;28;19981;-72
2022/08/11 14:36:38;;;;;;;;;;;33.70;36.00;;;;;;4996415;28;19925;-71
2022/08/11 14:39:11;;;;;;;;;;;33.70;36.10;;;;;;4978893;28;20037;-72
2022/08/11 14:47:13;;;;;;;;;;;33.70;34.90;;;;;;4992378;28;20336;-72
2022/08/11 14:49:39;;;;;;;;;;;33.60;33.70;;;;;;4999694;28;19918;-72
2022/08/11 14:52:10;;;;;;;;;;;33.50;35.40;;;;;;4994232;28;19917;-72
2022/08/11 14:57:20;;;;;;;;;;;33.50;35.20;;;;;;4998998;28;19940;-72
2022/08/11 14:59:47;;;;;;;;;;;33.50;34.80;;;;;;4980801;28;19988;-73
2022/08/11 15:04:59;;;;;;;;;;;33.40;34.70;;;;;;4999116;28;19931;-72
2022/08/11 15:07:29;;;;;;;;;;;33.40;33.80;;;;;;4996042;28;19929;-71
2022/08/11 15:09:56;;;;;;;;;;;33.30;33.80;;;;;;4981254;28;20427;-72
2022/08/11 15:12:21;;;;;;;;;;;33.20;34.00;;;;;;4998194;28;19913;-72
2022/08/11 15:17:32;;;;;;;;;;;33.00;36.60;;;;;;4997123;28;19924;-71
2022/08/11 15:25:29;;;;;;;;;;;32.80;35.30;;;;;;4997641;28;19995;-73
2022/08/11 15:38:56;;;;;;;;;;;32.60;34.20;;;;;;4993772;28;20056;-72
2022/08/11 15:46:57;;;;;;;;;;;32.30;34.20;;;;;;4965776;28;19920;-71
2022/08/11 15:49:28;;;;;;;;;;;32.30;33.00;;;;;;4994634;28;20298;-71
2022/08/11 15:52:01;;;;;;;;;;;32.10;33.30;;;;;;4992507;28;20015;-71
2022/08/11 15:54:29;;;;;;;;;;;31.90;34.40;;;;;;4993448;28;19918;-72
2022/08/11 15:56:57;;;;;;;;;;;31.90;33.70;;;;;;4997098;28;19924;-72
2022/08/11 16:04:55;;;;;;;;;;;31.60;34.40;;;;;;4998365;28;20034;-72
2022/08/11 16:07:27;;;;;;;;;;;31.50;33.60;;;;;;4990777;28;20019;-72
2022/08/11 16:10:05;;;;;;;;;;;31.40;34.70;;;;;;4980725;28;19918;-72
2022/08/11 16:12:34;;;;;;;;;;;31.40;34.60;;;;;;4996070;28;20364;-72
2022/08/11 16:17:54;;;;;;;;;;;31.20;35.10;;;;;;4993375;28;20030;-72
2022/08/11 16:20:22;;;;;;;;;;;31.20;34.00;;;;;;4998282;28;19940;-71
2022/08/11 16:22:48;;;;;;;;;;;31.20;33.90;;;;;;4981735;28;20422;-71
2022/08/11 16:25:16;;;;;;;;;;;31.20;33.80;;;;;;4998093;28;19917;-71
2022/08/11 16:27:43;;;;;;;;;;;31.10;34.20;;;;;;4982084;28;19936;-71
2022/08/11 16:30:09;;;;;;;;;;;31.10;34.60;;;;;;5000032;28;19929;-71
2022/08/11 16:32:37;;;;;;;;;;;31.10;34.20;;;;;;4980361;28;20281;-71
2022/08/11 16:40:37;;;;;;;;;;;31.00;33.60;;;;;;4980621;28;19956;-71
2022/08/11 16:48:34;;;;;;;;;;;30.60;33.80;;;;;;4994953;28;19931;-71
2022/08/11 16:50:59;;;;;;;;;;;30.60;34.10;;;;;;4999023;28;19917;-71
2022/08/11 16:53:27;;;;;;;;;;;30.40;36.20;;;;;;4998426;28;20287;-71
2022/08/11 16:55:53;;;;;;;;;;;30.40;34.40;;;;;;4982954;28;19928;-71
2022/08/11 17:01:05;;;;;;;;;;;30.40;34.40;;;;;;4991495;28;19925;-71
2022/08/11 17:14:56;;;;;;;;;;;30.00;35.70;;;;;;4988250;28;20371;-71
2022/08/11 17:17:40;;;;;;;;;;;29.90;36.90;;;;;;4994225;28;19921;-71
2022/08/11 17:20:09;;;;;;;;;;;29.90;35.70;;;;;;4982410;28;20758;-70
2022/08/11 17:25:22;;;;;;;;;;;29.60;36.60;;;;;;4992465;28;19924;-71
2022/08/11 17:27:49;;;;;;;;;;;29.60;37.40;;;;;;4993538;28;20583;-71
2022/08/11 17:30:15;;;;;;;;;;;29.50;37.30;;;;;;4999896;28;20650;-70
2022/08/11 17:35:34;;;;;;;;;;;29.30;37.80;;;;;;5006133;28;19924;-70
2022/08/11 17:38:08;;;;;;;;;;;29.30;38.00;;;;;;4998251;28;20021;-70
2022/08/11 17:40:38;;;;;;;;;;;29.20;37.90;;;;;;4991232;28;19917;-70
2022/08/11 17:48:34;;;;;;;;;;;28.80;38.60;;;;;;5002554;28;19929;-70
2022/08/11 17:51:05;;;;;;;;;;;28.70;40.10;;;;;;5004062;28;19917;-70
2022/08/11 18:01:48;;;;;;;;;;;28.20;38.50;;;;;;4996825;28;20036;-70
2022/08/11 18:04:15;;;;;;;;;;;28.00;40.10;;;;;;4985954;28;19925;-71
2022/08/11 18:06:41;;;;;;;;;;;27.80;40.70;;;;;;5000109;28;19924;-70
